Gogama, Canada
Current Conditions -  °F | °C
As of 10:00 AM on Monday 24 Nov 2014 (Local Time) from CYTS Reporting Station
Light Rain Light Rain  
Wind Chill:   Ceiling: 300
Heat Index:   Visibility: 3mi
Dew Point:   Wind: 8mph
Humidity: 100%   Direction: 80°E
Pressure: 28.89"   Gusts: NA
Location:  47.67°N, 81.72°W
Report Text: CYTS 241500Z 08007KT 3SM -RA BR BKN003 OVC012 03/03 A2889 RMK SF7NS1 CIG RAG SLP792
Loading
Personal Weather Stations






























Interactive Weather Map New forecast layout! Learn more

10-Day Weather Forecast

Advertisements
Track Severe Weather on mobile